Time;durP1;ratioP1;P1;durP2;ratioP2;P2;SDS_P1;SDS_P2;PMS_P1;PMS_P2;Temp;Humidity;BMP_temperature;BMP_pressure;BME280_temperature;BME280_humidity;BME280_pressure;Samples;Min_cycle;Max_cycle;Signal;HPM_P1;HPM_P2
2023/04/12 00:01:56;;;;;;;7.60;2.47;;;9.30;99.90;;;;;;5014222;28;20484;-64
2023/04/12 00:04:25;;;;;;;6.90;2.63;;;9.30;99.90;;;;;;5016692;28;20053;-64
2023/04/12 00:06:53;;;;;;;6.00;2.67;;;9.40;99.90;;;;;;5017676;28;20116;-64
2023/04/12 00:09:19;;;;;;;10.82;3.13;;;9.40;99.90;;;;;;5001083;28;20049;-63
2023/04/12 00:11:47;;;;;;;7.07;2.42;;;9.40;99.90;;;;;;5031351;28;20489;-64
2023/04/12 00:14:13;;;;;;;10.38;2.58;;;9.40;99.90;;;;;;5032383;28;20076;-64
2023/04/12 00:16:40;;;;;;;5.78;2.22;;;9.40;99.90;;;;;;5017828;28;20076;-63
2023/04/12 00:19:12;;;;;;;6.30;3.15;;;9.50;99.90;;;;;;5033916;28;20073;-63
2023/04/12 00:21:38;;;;;;;5.80;2.70;;;9.50;99.90;;;;;;5035064;28;20177;-64
2023/04/12 00:24:05;;;;;;;7.75;2.85;;;9.50;99.90;;;;;;5034824;28;20060;-63
2023/04/12 00:26:31;;;;;;;5.47;2.42;;;9.50;99.90;;;;;;5017526;28;20051;-63
2023/04/12 00:28:57;;;;;;;6.65;2.90;;;9.60;99.90;;;;;;5017040;28;20092;-63
2023/04/12 00:31:24;;;;;;;5.85;2.55;;;9.60;99.90;;;;;;5016675;28;20045;-63
2023/04/12 00:33:50;;;;;;;5.97;2.97;;;9.60;99.90;;;;;;5017390;28;20053;-64
2023/04/12 00:36:17;;;;;;;6.22;2.55;;;9.50;99.90;;;;;;5016967;28;20489;-63
2023/04/12 00:38:44;;;;;;;5.38;2.90;;;9.50;99.90;;;;;;5016834;28;20140;-64
2023/04/12 00:41:12;;;;;;;9.07;2.83;;;9.50;99.90;;;;;;5017056;28;20064;-64
2023/04/12 00:43:41;;;;;;;6.88;2.70;;;9.50;99.90;;;;;;5016953;28;20053;-63
2023/04/12 00:46:08;;;;;;;7.53;2.75;;;9.50;99.90;;;;;;5033325;28;20053;-64
2023/04/12 00:48:36;;;;;;;6.45;2.70;;;9.40;99.90;;;;;;5016772;28;20088;-63
2023/04/12 00:51:04;;;;;;;8.63;2.88;;;9.40;99.90;;;;;;5034027;28;20077;-64
2023/04/12 00:53:32;;;;;;;6.07;2.60;;;9.40;99.90;;;;;;5031464;28;20115;-64
2023/04/12 00:55:58;;;;;;;9.27;2.85;;;9.30;99.90;;;;;;5016817;28;20466;-64
2023/04/12 00:58:25;;;;;;;6.65;2.85;;;9.30;99.90;;;;;;5033962;28;20068;-64
2023/04/12 01:00:53;;;;;;;6.05;2.83;;;9.30;99.90;;;;;;5016203;28;20911;-64
2023/04/12 01:03:26;;;;;;;5.72;3.08;;;9.30;99.90;;;;;;5016151;28;20052;-64
2023/04/12 01:06:28;;;;;;;9.85;3.42;;;9.30;99.90;;;;;;5000494;28;20049;-63
2023/04/12 01:09:29;;;;;;;8.50;2.90;;;9.20;99.90;;;;;;5016205;28;20053;-63
2023/04/12 01:12:16;;;;;;;7.43;3.42;;;9.20;99.90;;;;;;5012656;28;20073;-64
2023/04/12 01:14:50;;;;;;;7.60;2.75;;;9.10;99.90;;;;;;5013798;28;20137;-64
2023/04/12 01:17:20;;;;;;;7.00;2.95;;;9.10;99.90;;;;;;5013291;28;20038;-64
2023/04/12 01:20:12;;;;;;;7.47;2.88;;;9.10;99.90;;;;;;4996508;28;20077;-63
2023/04/12 01:22:59;;;;;;;5.97;2.45;;;9.10;99.90;;;;;;4999499;28;20136;-63
2023/04/12 01:25:51;;;;;;;6.95;3.15;;;9.10;99.90;;;;;;5016498;28;20091;-64
2023/04/12 01:28:25;;;;;;;8.52;2.50;;;9.10;99.90;;;;;;5015812;28;20103;-63
2023/04/12 01:30:52;;;;;;;7.82;2.83;;;9.10;99.90;;;;;;5016393;28;20092;-64
2023/04/12 01:33:20;;;;;;;6.90;2.63;;;9.10;99.90;;;;;;5032099;28;20128;-63
2023/04/12 01:35:48;;;;;;;4.72;2.47;;;9.00;99.90;;;;;;5015919;28;20081;-64
2023/04/12 01:38:15;;;;;;;6.97;2.50;;;9.00;99.90;;;;;;5031861;28;20131;-64
2023/04/12 01:40:41;;;;;;;7.25;2.63;;;9.00;99.90;;;;;;5033516;28;20085;-63
2023/04/12 01:43:12;;;;;;;8.18;2.45;;;8.90;99.90;;;;;;5019758;28;20050;-63
2023/04/12 01:45:39;;;;;;;4.40;2.90;;;9.00;99.90;;;;;;5012946;28;20060;-64
2023/04/12 01:48:10;;;;;;;7.07;2.53;;;8.90;99.90;;;;;;5012555;28;20115;-64
2023/04/12 01:50:50;;;;;;;5.80;2.25;;;8.90;99.90;;;;;;5013078;28;20073;-64
2023/04/12 01:53:35;;;;;;;8.27;2.45;;;8.90;99.90;;;;;;5031573;28;20085;-63
2023/04/12 01:56:06;;;;;;;5.82;2.55;;;8.80;99.90;;;;;;5015903;28;20071;-66
2023/04/12 01:58:33;;;;;;;7.97;2.88;;;8.80;99.90;;;;;;5032938;28;20041;-65
2023/04/12 02:01:01;;;;;;;7.35;3.33;;;8.80;99.90;;;;;;5015946;28;20358;-64
2023/04/12 02:03:31;;;;;;;6.45;2.47;;;8.80;99.90;;;;;;5011966;28;20134;-63
2023/04/12 02:05:58;;;;;;;6.00;2.25;;;8.80;99.90;;;;;;5012540;28;20108;-64
2023/04/12 02:08:25;;;;;;;7.75;2.97;;;8.80;99.90;;;;;;5012941;28;20054;-65
2023/04/12 02:10:52;;;;;;;7.40;3.10;;;8.80;99.90;;;;;;5012084;28;20600;-65
2023/04/12 02:13:19;;;;;;;6.63;2.72;;;8.70;99.90;;;;;;5028584;28;20104;-63
2023/04/12 02:15:45;;;;;;;6.32;3.03;;;8.70;99.90;;;;;;4985144;28;20058;-63
2023/04/12 02:18:12;;;;;;;8.40;2.85;;;8.70;99.90;;;;;;4995221;28;20132;-64
2023/04/12 02:20:39;;;;;;;6.97;2.78;;;8.70;99.90;;;;;;5012997;28;20049;-64
2023/04/12 02:23:05;;;;;;;7.35;2.35;;;8.70;99.90;;;;;;4999419;28;20112;-63
2023/04/12 02:25:32;;;;;;;6.60;2.90;;;8.70;99.90;;;;;;4975792;28;20057;-65
2023/04/12 02:27:58;;;;;;;8.05;2.58;;;8.70;99.90;;;;;;4976398;28;20112;-64
2023/04/12 02:30:24;;;;;;;6.63;2.33;;;8.70;99.90;;;;;;4975810;28;20141;-64
2023/04/12 02:32:52;;;;;;;10.23;2.45;;;8.70;99.90;;;;;;5002922;28;20138;-64
2023/04/12 02:35:21;;;;;;;8.88;2.70;;;8.70;99.90;;;;;;4995433;28;20081;-63
2023/04/12 02:37:48;;;;;;;5.70;2.55;;;8.70;99.90;;;;;;5013087;28;20050;-64
2023/04/12 02:40:14;;;;;;;7.30;2.70;;;8.70;99.90;;;;;;4995362;28;20061;-64
2023/04/12 02:42:41;;;;;;;6.28;3.03;;;8.60;99.90;;;;;;4985456;28;20053;-64
2023/04/12 02:45:09;;;;;;;7.78;3.38;;;8.60;99.90;;;;;;4976309;28;20105;-64
2023/04/12 02:47:36;;;;;;;8.40;3.50;;;8.60;99.90;;;;;;4993107;28;20086;-64
2023/04/12 02:50:03;;;;;;;6.68;3.25;;;8.60;99.90;;;;;;4975855;28;20129;-64
2023/04/12 02:52:31;;;;;;;5.97;2.50;;;8.50;99.90;;;;;;4983768;28;20069;-64
2023/04/12 02:54:58;;;;;;;6.32;2.83;;;8.50;99.90;;;;;;4995803;28;20068;-65
2023/04/12 02:57:25;;;;;;;7.75;3.58;;;8.50;99.90;;;;;;5011757;28;20128;-65
2023/04/12 02:59:54;;;;;;;6.35;2.92;;;8.50;99.90;;;;;;4995389;28;20390;-64
2023/04/12 03:02:21;;;;;;;7.78;2.75;;;8.50;99.90;;;;;;4995005;28;20423;-65
2023/04/12 03:04:49;;;;;;;8.07;2.90;;;8.50;99.90;;;;;;5012311;28;20445;-65
2023/04/12 03:07:18;;;;;;;9.35;3.05;;;8.50;99.90;;;;;;4995019;28;20467;-64
2023/04/12 03:09:48;;;;;;;6.90;3.15;;;8.60;99.90;;;;;;4994935;28;20089;-65
2023/04/12 03:12:15;;;;;;;9.35;3.08;;;8.50;99.90;;;;;;4993856;28;20053;-65
2023/04/12 03:14:42;;;;;;;6.30;2.63;;;8.50;99.90;;;;;;4995060;28;20049;-64
2023/04/12 03:17:08;;;;;;;7.90;2.72;;;8.60;99.90;;;;;;5012560;28;20078;-64
2023/04/12 03:19:35;;;;;;;5.45;2.70;;;8.60;99.90;;;;;;4994636;28;20081;-65
2023/04/12 03:22:03;;;;;;;4.93;2.20;;;8.50;99.90;;;;;;4994789;28;20224;-65
2023/04/12 03:24:32;;;;;;;5.28;2.58;;;8.60;99.90;;;;;;5012593;28;20045;-65
2023/04/12 03:27:03;;;;;;;5.85;2.25;;;8.60;99.90;;;;;;5012407;28;20085;-65
2023/04/12 03:29:30;;;;;;;9.10;2.42;;;8.60;99.90;;;;;;5012381;28;20050;-65
2023/04/12 03:31:58;;;;;;;5.70;2.10;;;8.60;99.90;;;;;;4993762;28;20077;-65
2023/04/12 03:34:34;;;;;;;2.95;2.00;;;8.50;99.90;;;;;;4994916;28;20607;-63
2023/04/12 03:37:01;;;;;;;5.13;2.63;;;8.60;99.90;;;;;;4995854;28;20129;-65
2023/04/12 03:39:27;;;;;;;4.93;2.28;;;8.60;99.90;;;;;;5015000;28;20153;-64
2023/04/12 03:41:54;;;;;;;6.13;3.05;;;8.60;99.90;;;;;;4995840;28;20076;-66
2023/04/12 03:44:21;;;;;;;5.00;2.47;;;8.50;99.90;;;;;;4979475;28;20141;-64
2023/04/12 03:46:47;;;;;;;6.05;3.30;;;8.50;99.90;;;;;;4995218;28;20085;-65
2023/04/12 03:49:15;;;;;;;8.40;2.95;;;8.60;99.90;;;;;;4962615;28;20499;-66
2023/04/12 03:51:42;;;;;;;4.88;2.85;;;8.50;99.90;;;;;;4979565;28;20065;-64
2023/04/12 03:54:10;;;;;;;4.05;2.72;;;8.50;99.90;;;;;;4982178;28;20116;-64
2023/04/12 03:56:37;;;;;;;5.85;3.22;;;8.50;99.90;;;;;;4998479;28;20069;-65
2023/04/12 03:59:07;;;;;;;4.90;2.65;;;8.50;99.90;;;;;;4998289;28;20136;-65
2023/04/12 04:01:34;;;;;;;6.40;2.20;;;8.40;99.90;;;;;;4997985;28;20046;-65
2023/04/12 04:04:01;;;;;;;5.43;2.33;;;8.40;99.90;;;;;;4979773;28;20054;-65
2023/04/12 04:06:28;;;;;;;4.40;3.28;;;8.50;99.90;;;;;;4979307;28;20093;-66
2023/04/12 04:08:58;;;;;;;7.13;3.03;;;8.50;99.90;;;;;;4979432;28;20054;-65
2023/04/12 04:11:26;;;;;;;3.95;2.40;;;8.50;99.90;;;;;;4978560;28;20069;-65
2023/04/12 04:13:53;;;;;;;6.30;2.22;;;8.50;99.90;;;;;;5014219;28;20068;-65
2023/04/12 04:16:20;;;;;;;5.60;3.20;;;8.50;99.90;;;;;;4998273;28;20077;-65
2023/04/12 04:18:46;;;;;;;6.50;2.72;;;8.50;99.90;;;;;;4997787;28;20108;-66
2023/04/12 04:21:15;;;;;;;5.55;3.60;;;8.40;99.90;;;;;;4997935;28;20138;-65
2023/04/12 04:23:46;;;;;;;5.32;3.67;;;8.40;99.90;;;;;;4998031;28;20332;-64
2023/04/12 04:26:14;;;;;;;6.15;3.38;;;8.40;99.90;;;;;;4997736;28;20355;-64
2023/04/12 04:28:43;;;;;;;5.68;3.90;;;8.40;99.90;;;;;;5013864;28;20042;-64
2023/04/12 04:31:11;;;;;;;6.57;3.88;;;8.40;99.90;;;;;;4997763;28;20050;-65
2023/04/12 04:33:38;;;;;;;9.05;4.35;;;8.30;99.90;;;;;;5013750;28;20049;-66
2023/04/12 04:36:08;;;;;;;9.45;5.38;;;8.30;99.90;;;;;;5017332;28;20140;-66
2023/04/12 04:38:35;;;;;;;6.53;5.25;;;8.30;99.90;;;;;;5016828;28;20398;-64
2023/04/12 04:41:02;;;;;;;7.82;4.80;;;8.30;99.90;;;;;;5017095;28;20088;-63
2023/04/12 04:43:29;;;;;;;8.73;6.32;;;8.20;99.90;;;;;;5001637;28;20474;-63
2023/04/12 04:45:59;;;;;;;7.55;6.13;;;8.20;99.90;;;;;;4997525;28;20092;-63
2023/04/12 04:48:26;;;;;;;13.98;7.80;;;8.10;99.90;;;;;;4996228;28;20054;-64
2023/04/12 04:50:53;;;;;;;10.85;6.85;;;8.10;99.90;;;;;;5014346;28;20433;-63
2023/04/12 04:53:21;;;;;;;13.80;8.30;;;8.10;99.90;;;;;;5010608;28;20496;-62
2023/04/12 04:55:47;;;;;;;12.07;7.38;;;8.10;99.90;;;;;;5010450;28;20437;-66
2023/04/12 04:58:15;;;;;;;10.18;9.13;;;8.10;99.90;;;;;;4985686;28;20050;-63
2023/04/12 05:00:43;;;;;;;10.38;7.95;;;8.00;99.90;;;;;;4971104;28;20093;-64
2023/04/12 05:03:10;;;;;;;10.40;8.23;;;8.00;99.90;;;;;;4987729;28;20053;-64
2023/04/12 05:05:37;;;;;;;11.77;8.20;;;8.10;99.90;;;;;;4987184;28;20112;-64
2023/04/12 05:08:04;;;;;;;13.70;8.23;;;8.00;99.90;;;;;;4989179;28;20054;-63
2023/04/12 05:10:30;;;;;;;13.60;8.48;;;8.10;99.90;;;;;;4977484;28;20054;-64
2023/04/12 05:12:56;;;;;;;11.07;7.50;;;8.10;99.90;;;;;;4988758;28;20175;-64
2023/04/12 05:15:23;;;;;;;12.38;7.93;;;8.00;99.90;;;;;;4998949;28;20092;-64
2023/04/12 05:17:49;;;;;;;11.60;7.57;;;7.90;99.90;;;;;;5024999;28;20355;-64
2023/04/12 05:20:15;;;;;;;12.38;8.05;;;8.00;99.90;;;;;;5007957;28;20140;-64
2023/04/12 05:22:42;;;;;;;10.23;7.40;;;7.90;99.90;;;;;;5007839;28;20042;-62
2023/04/12 05:25:08;;;;;;;12.65;6.85;;;8.00;99.90;;;;;;5032165;28;20049;-63
2023/04/12 05:27:35;;;;;;;9.40;7.03;;;8.00;99.90;;;;;;5033602;28;20110;-64
2023/04/12 05:30:01;;;;;;;10.85;6.80;;;8.10;99.90;;;;;;5016134;28;20137;-64
2023/04/12 05:32:27;;;;;;;9.80;6.85;;;7.90;99.90;;;;;;5024495;28;20077;-64
2023/04/12 05:34:54;;;;;;;10.80;6.47;;;8.00;99.90;;;;;;5016265;28;20045;-64
2023/04/12 05:37:21;;;;;;;11.20;6.07;;;8.00;99.90;;;;;;5015925;28;20468;-65
2023/04/12 05:39:47;;;;;;;7.93;6.07;;;7.90;99.90;;;;;;5033163;28;20085;-64
2023/04/12 05:42:13;;;;;;;10.75;5.47;;;7.90;99.90;;;;;;5012184;28;20366;-63
2023/04/12 05:44:40;;;;;;;10.05;5.15;;;8.00;99.90;;;;;;5013062;28;20096;-65
2023/04/12 05:47:06;;;;;;;9.05;6.43;;;8.00;99.90;;;;;;5012305;28;20089;-65
2023/04/12 05:49:32;;;;;;;8.93;5.57;;;8.00;99.90;;;;;;5000587;28;20053;-65
2023/04/12 05:51:59;;;;;;;10.15;6.30;;;7.90;99.90;;;;;;5015895;28;20362;-64
2023/04/12 05:54:25;;;;;;;8.82;5.50;;;7.90;99.90;;;;;;5015875;28;20403;-65
2023/04/12 05:56:53;;;;;;;10.68;5.75;;;8.00;99.90;;;;;;5015769;28;20049;-64
2023/04/12 05:59:19;;;;;;;8.13;5.50;;;8.00;99.90;;;;;;5032565;28;20496;-64
2023/04/12 06:01:46;;;;;;;7.25;5.53;;;8.00;99.90;;;;;;5032460;28;20060;-66
2023/04/12 06:04:13;;;;;;;9.02;5.93;;;8.00;99.90;;;;;;5000406;28;20057;-66
2023/04/12 06:06:39;;;;;;;12.13;6.00;;;8.10;99.90;;;;;;5016670;28;20430;-66
2023/04/12 06:09:06;;;;;;;8.48;6.28;;;8.00;99.90;;;;;;5016934;28;20053;-66
2023/04/12 06:11:32;;;;;;;8.80;5.68;;;8.00;99.90;;;;;;5016252;28;20042;-65
2023/04/12 06:14:00;;;;;;;8.73;7.00;;;8.00;99.90;;;;;;5012511;28;20081;-66
2023/04/12 06:16:26;;;;;;;8.65;5.70;;;7.90;99.90;;;;;;5029207;28;20478;-65
2023/04/12 06:18:53;;;;;;;7.28;5.55;;;8.00;99.90;;;;;;5013335;28;20374;-65
2023/04/12 06:21:19;;;;;;;9.90;5.43;;;8.10;99.90;;;;;;5030017;28;20061;-65
2023/04/12 06:23:45;;;;;;;7.70;5.93;;;8.10;99.90;;;;;;5013250;28;20500;-66
2023/04/12 06:26:11;;;;;;;9.57;5.95;;;8.00;99.90;;;;;;5013746;28;20064;-65
2023/04/12 06:28:38;;;;;;;6.68;5.63;;;8.00;99.90;;;;;;5013615;28;20370;-65
2023/04/12 06:31:04;;;;;;;11.02;7.05;;;8.10;99.90;;;;;;5013078;28;20611;-65
2023/04/12 06:33:31;;;;;;;9.18;6.72;;;8.20;99.90;;;;;;5012603;28;20350;-65
2023/04/12 06:36:01;;;;;;;9.18;6.60;;;8.10;99.90;;;;;;5015453;28;20053;-65
2023/04/12 06:38:27;;;;;;;7.80;7.00;;;8.10;99.90;;;;;;5031976;28;20041;-65
2023/04/12 06:40:53;;;;;;;8.27;6.18;;;8.20;99.90;;;;;;5015009;28;20053;-66
2023/04/12 06:43:21;;;;;;;6.13;5.25;;;8.00;99.90;;;;;;5014384;28;20053;-66
2023/04/12 06:45:51;;;;;;;9.52;6.00;;;8.10;99.90;;;;;;5015312;28;20072;-65
2023/04/12 06:48:17;;;;;;;8.95;6.35;;;8.10;99.90;;;;;;5013229;28;20089;-66
2023/04/12 06:50:44;;;;;;;8.23;6.30;;;8.10;99.90;;;;;;5011652;28;20089;-65
2023/04/12 06:53:12;;;;;;;7.60;6.65;;;8.10;99.90;;;;;;5013576;28;20049;-66
2023/04/12 06:55:39;;;;;;;8.30;6.10;;;8.10;99.90;;;;;;5015050;28;20505;-65
2023/04/12 06:58:05;;;;;;;8.25;7.45;;;8.00;99.90;;;;;;5030528;28;20488;-66
2023/04/12 07:00:31;;;;;;;7.88;6.63;;;8.10;99.90;;;;;;5014914;28;20053;-67
2023/04/12 07:03:04;;;;;;;7.90;7.20;;;8.20;99.90;;;;;;5011015;28;20112;-65
2023/04/12 07:05:30;;;;;;;7.07;6.35;;;8.00;99.90;;;;;;5011550;28;20058;-67
2023/04/12 07:07:57;;;;;;;7.03;6.32;;;8.20;99.90;;;;;;5010875;28;20096;-66
2023/04/12 07:10:23;;;;;;;8.20;7.40;;;8.20;99.90;;;;;;5025770;28;20077;-66
2023/04/12 07:12:50;;;;;;;7.95;6.82;;;8.10;99.90;;;;;;5013680;28;20038;-66
2023/04/12 07:15:17;;;;;;;7.45;6.75;;;8.20;99.90;;;;;;5015354;28;20131;-66
2023/04/12 07:17:43;;;;;;;8.60;7.80;;;8.10;99.90;;;;;;5014391;28;20108;-66
2023/04/12 07:20:10;;;;;;;8.68;6.93;;;8.10;99.90;;;;;;5015325;28;20042;-66
2023/04/12 07:22:36;;;;;;;7.65;6.85;;;8.10;99.90;;;;;;5011389;28;20104;-66
2023/04/12 07:25:08;;;;;;;10.10;6.85;;;8.20;99.90;;;;;;5016283;28;20049;-67
2023/04/12 07:27:35;;;;;;;9.02;7.30;;;8.10;99.90;;;;;;4998383;28;20064;-66
2023/04/12 07:30:02;;;;;;;10.07;8.00;;;8.10;99.90;;;;;;5016220;28;20053;-66
2023/04/12 07:32:28;;;;;;;7.78;6.53;;;8.20;99.90;;;;;;4982733;28;20477;-66
2023/04/12 07:34:54;;;;;;;9.10;7.55;;;8.30;99.90;;;;;;4979247;28;20054;-66
2023/04/12 07:37:21;;;;;;;8.27;7.45;;;8.30;99.90;;;;;;4979105;28;20141;-68
2023/04/12 07:39:47;;;;;;;7.80;6.82;;;8.30;99.90;;;;;;4975929;28;20130;-65
2023/04/12 07:42:13;;;;;;;7.88;6.88;;;8.20;99.90;;;;;;4978542;28;20042;-67
2023/04/12 07:44:39;;;;;;;8.52;6.55;;;8.30;99.90;;;;;;4978864;28;20138;-66
2023/04/12 07:47:06;;;;;;;8.20;7.35;;;8.20;99.90;;;;;;4975559;28;20093;-65
2023/04/12 07:49:32;;;;;;;7.57;6.40;;;8.40;99.90;;;;;;4974984;28;20087;-66
2023/04/12 07:52:02;;;;;;;11.43;6.68;;;8.40;99.90;;;;;;4977679;28;20061;-65
2023/04/12 07:54:28;;;;;;;7.43;6.60;;;8.30;99.90;;;;;;4995920;28;20077;-66
2023/04/12 07:57:02;;;;;;;7.45;6.75;;;8.50;99.90;;;;;;4996281;28;20089;-66
2023/04/12 07:59:30;;;;;;;8.55;6.45;;;8.40;99.90;;;;;;4978674;28;20053;-66
2023/04/12 08:01:57;;;;;;;7.68;6.70;;;8.50;99.90;;;;;;4962794;28;20057;-66
2023/04/12 08:04:23;;;;;;;7.68;6.88;;;8.60;99.90;;;;;;4978539;28;20136;-66
2023/04/12 08:06:50;;;;;;;8.18;6.93;;;8.60;99.90;;;;;;4978564;28;20046;-66
2023/04/12 08:09:16;;;;;;;8.10;7.40;;;8.50;99.90;;;;;;4978270;28;20111;-66
2023/04/12 08:11:43;;;;;;;8.52;6.72;;;8.60;99.90;;;;;;4978360;28;20046;-66
2023/04/12 08:14:09;;;;;;;7.00;6.30;;;8.60;99.90;;;;;;4977855;28;20057;-66
2023/04/12 08:16:35;;;;;;;8.30;6.75;;;8.50;99.90;;;;;;4995798;28;20046;-66
2023/04/12 08:19:05;;;;;;;7.03;6.40;;;8.70;99.90;;;;;;4978441;28;20050;-67
2023/04/12 08:21:32;;;;;;;7.55;6.35;;;8.70;99.90;;;;;;5010644;28;20133;-66
2023/04/12 08:23:58;;;;;;;5.70;5.20;;;8.70;99.90;;;;;;4994119;28;20050;-67
2023/04/12 08:26:28;;;;;;;7.68;6.35;;;8.60;99.90;;;;;;4978172;28;20054;-66
2023/04/12 08:28:56;;;;;;;6.50;5.90;;;8.80;99.90;;;;;;4995181;28;20058;-66
2023/04/12 08:31:23;;;;;;;5.10;4.43;;;8.80;99.90;;;;;;4978268;28;20460;-66
2023/04/12 08:33:49;;;;;;;7.65;5.70;;;8.90;99.90;;;;;;4977883;28;20042;-66
2023/04/12 08:36:15;;;;;;;5.53;4.63;;;8.90;99.90;;;;;;4994969;28;20529;-66
2023/04/12 08:38:42;;;;;;;5.03;4.40;;;9.00;99.90;;;;;;4995064;28;20046;-66
2023/04/12 08:41:08;;;;;;;4.90;4.18;;;8.90;99.90;;;;;;4994134;28;20054;-66
2023/04/12 08:43:36;;;;;;;6.57;4.05;;;9.00;99.90;;;;;;4977976;28;20053;-67
2023/04/12 08:46:04;;;;;;;5.40;4.63;;;9.00;99.90;;;;;;4978034;28;20113;-67
2023/04/12 08:48:30;;;;;;;5.50;4.32;;;9.10;99.90;;;;;;4995390;28;20050;-66
2023/04/12 08:50:56;;;;;;;4.68;3.97;;;9.00;99.90;;;;;;4978515;28;20459;-64
2023/04/12 08:53:23;;;;;;;5.00;3.65;;;9.00;99.90;;;;;;4995374;28;20130;-65
2023/04/12 08:55:49;;;;;;;5.40;4.38;;;9.20;99.90;;;;;;4978328;28;20141;-65
2023/04/12 08:58:15;;;;;;;5.07;3.83;;;9.20;99.90;;;;;;4995677;28;20078;-65
2023/04/12 09:00:43;;;;;;;4.63;3.75;;;9.30;99.90;;;;;;4978632;28;20382;-65
2023/04/12 09:03:09;;;;;;;5.75;4.03;;;9.20;99.90;;;;;;4995925;28;20509;-65
2023/04/12 09:05:36;;;;;;;5.07;3.97;;;9.40;99.90;;;;;;4978617;28;20484;-66
2023/04/12 09:08:03;;;;;;;4.35;3.65;;;9.40;99.90;;;;;;4978465;28;20152;-65
2023/04/12 09:10:38;;;;;;;5.97;3.65;;;9.50;99.90;;;;;;4996017;28;20057;-65
2023/04/12 09:13:05;;;;;;;5.45;3.97;;;9.60;99.90;;;;;;4978831;28;20050;-65
2023/04/12 09:15:32;;;;;;;7.03;4.20;;;9.70;99.90;;;;;;4978768;28;20462;-65
2023/04/12 09:18:10;;;;;;;4.80;4.05;;;9.80;99.90;;;;;;4978371;28;20050;-65
2023/04/12 09:20:37;;;;;;;5.25;3.80;;;9.80;99.90;;;;;;4978877;28;20065;-66
2023/04/12 09:23:25;;;;;;;6.65;3.53;;;9.70;99.90;;;;;;4995058;28;20133;-65
2023/04/12 09:25:52;;;;;;;6.57;3.72;;;9.80;99.90;;;;;;4979372;28;20086;-66
2023/04/12 09:28:21;;;;;;;4.53;3.85;;;9.80;99.90;;;;;;4978680;28;20050;-65
2023/04/12 09:30:50;;;;;;;7.55;4.32;;;9.80;99.90;;;;;;4979186;28;20594;-65
2023/04/12 09:33:22;;;;;;;7.10;4.35;;;9.90;99.90;;;;;;4966888;28;20452;-65
2023/04/12 09:35:48;;;;;;;10.05;5.10;;;10.10;99.90;;;;;;4975020;28;20432;-65
2023/04/12 09:38:15;;;;;;;6.28;4.63;;;10.30;99.90;;;;;;4975073;28;20057;-65
2023/04/12 09:40:41;;;;;;;6.32;4.35;;;10.50;99.90;;;;;;4975366;28;20078;-66
2023/04/12 09:43:08;;;;;;;8.48;4.72;;;10.80;99.90;;;;;;4953722;28;20462;-66
2023/04/12 09:45:37;;;;;;;7.28;3.88;;;11.10;99.90;;;;;;4977815;28;20054;-65
2023/04/12 09:48:05;;;;;;;7.22;4.25;;;11.10;99.90;;;;;;4963271;28;20055;-65
2023/04/12 09:50:34;;;;;;;6.72;3.60;;;11.30;99.90;;;;;;4958890;28;20086;-65
2023/04/12 09:53:02;;;;;;;9.57;3.42;;;11.40;99.90;;;;;;4975023;28;20493;-65
2023/04/12 09:55:30;;;;;;;8.05;3.72;;;11.30;99.90;;;;;;4959091;28;20051;-65
2023/04/12 09:58:01;;;;;;;9.25;4.38;;;11.40;99.90;;;;;;4943030;28;20487;-66
2023/04/12 10:00:28;;;;;;;7.53;4.03;;;11.50;99.90;;;;;;4959142;28;20076;-65
2023/04/12 10:02:55;;;;;;;8.10;4.43;;;11.70;99.90;;;;;;4959204;28;20047;-65
2023/04/12 10:05:24;;;;;;;8.65;4.18;;;11.70;99.90;;;;;;4959614;28;20125;-65
2023/04/12 10:07:51;;;;;;;7.32;3.47;;;11.70;99.90;;;;;;4959147;28;20061;-65
2023/04/12 10:10:18;;;;;;;11.23;3.78;;;11.80;99.90;;;;;;4959378;28;20497;-64
2023/04/12 10:12:46;;;;;;;9.13;3.97;;;11.80;99.90;;;;;;4974989;28;20404;-65
2023/04/12 10:15:16;;;;;;;9.07;3.67;;;12.10;99.90;;;;;;4967770;28;20057;-65
2023/04/12 10:17:48;;;;;;;12.77;3.85;;;12.30;99.90;;;;;;4994290;28;20082;-65
2023/04/12 10:20:15;;;;;;;;;;;12.30;99.90;;;;;;4962624;28;20050;-64
2023/04/12 10:22:46;;;;;;;9.93;3.50;;;12.40;99.90;;;;;;4994140;28;19928;-64
2023/04/12 10:25:14;;;;;;;11.70;3.28;;;12.60;99.90;;;;;;4975565;28;20129;-65
2023/04/12 10:27:41;;;;;;;9.25;3.28;;;12.80;99.90;;;;;;4973777;28;20082;-64
2023/04/12 10:30:27;;;;;;;9.18;3.50;;;12.60;99.90;;;;;;4971364;28;20434;-65
2023/04/12 10:33:03;;;;;;;12.80;2.83;;;12.60;99.90;;;;;;4976236;28;20538;-64
2023/04/12 10:35:48;;;;;;;11.27;3.33;;;12.50;99.90;;;;;;4976674;28;20449;-64
2023/04/12 10:38:15;;;;;;;11.18;3.28;;;12.50;99.90;;;;;;4976300;28;20050;-64
2023/04/12 10:41:15;;;;;;;9.02;3.30;;;12.50;99.90;;;;;;4977525;28;20077;-65
2023/04/12 10:43:49;;;;;;;10.98;3.05;;;12.60;99.90;;;;;;4961330;28;20054;-65
2023/04/12 10:46:44;;;;;;;7.15;3.03;;;12.70;99.90;;;;;;4977186;28;20062;-65
2023/04/12 10:49:15;;;;;;;7.60;3.28;;;12.70;99.90;;;;;;4976442;28;20066;-65
2023/04/12 10:52:09;;;;;;;7.93;2.75;;;12.80;99.90;;;;;;4959415;28;20042;-65
2023/04/12 10:54:35;;;;;;;12.68;3.40;;;13.00;99.90;;;;;;4973627;28;20117;-65
2023/04/12 10:57:03;;;;;;;11.98;3.45;;;13.00;99.90;;;;;;4992750;28;20046;-65
2023/04/12 10:59:54;;;;;;;13.90;3.42;;;13.10;99.90;;;;;;4976401;28;20470;-65
2023/04/12 11:02:20;;;;;;;8.15;3.22;;;13.10;99.90;;;;;;4976594;28;20499;-65
2023/04/12 11:05:03;;;;;;;13.45;3.78;;;13.10;99.90;;;;;;4976580;28;20473;-65
2023/04/12 11:07:40;;;;;;;9.90;3.17;;;13.20;99.90;;;;;;4985080;28;20078;-65
2023/04/12 11:10:20;;;;;;;9.40;3.17;;;13.20;99.90;;;;;;4976311;28;20438;-65
2023/04/12 11:12:54;;;;;;;7.55;2.85;;;13.30;99.90;;;;;;4976069;28;20430;-64
2023/04/12 11:15:24;;;;;;;9.38;2.83;;;13.30;99.90;;;;;;4981692;28;20125;-65
2023/04/12 11:17:55;;;;;;;10.38;2.70;;;13.30;99.90;;;;;;4959663;28;20186;-65
2023/04/12 11:20:22;;;;;;;9.00;2.97;;;13.30;99.90;;;;;;4976105;28;20507;-65
2023/04/12 11:22:50;;;;;;;11.80;2.40;;;13.20;99.90;;;;;;4976058;28;20082;-64
2023/04/12 11:25:17;;;;;;;8.13;2.65;;;13.30;99.90;;;;;;4976789;28;20078;-64
2023/04/12 11:27:50;;;;;;;9.65;2.25;;;13.30;99.90;;;;;;4976759;28;20413;-64
2023/04/12 11:30:18;;;;;;;8.57;2.70;;;13.40;99.90;;;;;;4976086;28;20054;-65
2023/04/12 11:32:46;;;;;;;10.38;3.50;;;13.40;99.90;;;;;;4981719;28;20050;-65
2023/04/12 11:35:15;;;;;;;9.98;2.88;;;13.50;99.90;;;;;;4995274;28;20064;-65
2023/04/12 11:37:42;;;;;;;13.75;2.85;;;13.50;99.90;;;;;;4995333;28;20078;-65
2023/04/12 11:40:09;;;;;;;9.95;2.80;;;13.50;99.90;;;;;;4995787;28;20132;-65
2023/04/12 11:42:38;;;;;;;12.27;2.55;;;13.70;99.90;;;;;;4994399;28;20046;-64
2023/04/12 11:45:06;;;;;;;8.18;2.75;;;13.80;99.90;;;;;;4977569;28;20050;-65
2023/04/12 11:47:33;;;;;;;8.77;2.88;;;13.80;99.90;;;;;;4975397;28;20057;-65
2023/04/12 11:49:59;;;;;;;12.10;2.95;;;13.70;99.90;;;;;;4975534;28;20050;-65
2023/04/12 11:52:32;;;;;;;8.18;2.50;;;13.70;99.90;;;;;;4991978;28;20101;-65
2023/04/12 11:55:07;;;;;;;11.63;2.80;;;13.50;99.90;;;;;;4975952;28;20043;-65
2023/04/12 11:57:34;;;;;;;10.75;2.80;;;13.40;99.90;;;;;;4975514;28;20078;-65
2023/04/12 12:00:00;;;;;;;10.02;3.13;;;13.40;99.90;;;;;;4979530;28;20062;-65
2023/04/12 12:02:27;;;;;;;11.32;3.20;;;13.30;99.90;;;;;;4979694;28;20454;-64
2023/04/12 12:04:54;;;;;;;8.38;2.70;;;13.30;99.90;;;;;;4979380;28;20081;-65
2023/04/12 12:07:21;;;;;;;13.43;3.05;;;13.40;99.90;;;;;;4978874;28;20113;-65
2023/04/12 12:09:48;;;;;;;12.82;3.20;;;13.50;99.90;;;;;;4962975;28;20094;-65
2023/04/12 12:12:15;;;;;;;13.73;3.15;;;13.50;99.90;;;;;;4980385;28;20482;-65
2023/04/12 12:14:44;;;;;;;10.98;2.92;;;13.40;99.90;;;;;;4998302;28;20066;-65
2023/04/12 12:17:15;;;;;;;9.82;2.60;;;13.40;99.90;;;;;;4998030;28;20389;-65
2023/04/12 12:19:43;;;;;;;10.52;3.13;;;13.30;99.90;;;;;;4998747;28;20064;-65
2023/04/12 12:22:20;;;;;;;12.50;3.03;;;13.20;99.90;;;;;;4997183;28;20049;-65
2023/04/12 12:24:56;;;;;;;6.95;2.30;;;13.30;99.90;;;;;;4979480;28;20101;-65
2023/04/12 12:27:31;;;;;;;7.97;2.20;;;13.20;99.90;;;;;;4978822;28;20112;-65
2023/04/12 12:30:03;;;;;;;7.80;2.80;;;13.30;99.90;;;;;;4978997;28;20485;-65
2023/04/12 12:32:34;;;;;;;14.70;2.50;;;13.30;99.90;;;;;;4979342;28;20169;-65
2023/04/12 12:35:00;;;;;;;9.50;2.92;;;13.30;99.90;;;;;;4978567;28;20106;-64
2023/04/12 12:37:28;;;;;;;9.25;2.22;;;13.30;99.90;;;;;;4978330;28;20085;-65
2023/04/12 12:40:15;;;;;;;8.23;2.80;;;13.30;99.90;;;;;;4978798;28;20153;-65
2023/04/12 12:42:50;;;;;;;8.45;2.13;;;13.20;99.90;;;;;;4979310;28;20042;-64
2023/04/12 12:45:21;;;;;;;13.90;3.17;;;13.20;99.90;;;;;;4997528;28;20089;-65
2023/04/12 12:47:49;;;;;;;11.65;3.03;;;13.10;99.90;;;;;;4984357;28;20060;-65
2023/04/12 12:50:17;;;;;;;12.40;2.42;;;13.20;99.90;;;;;;4978347;28;20058;-65
2023/04/12 12:52:45;;;;;;;7.13;2.03;;;13.00;99.90;;;;;;4983696;28;20045;-65
2023/04/12 12:55:15;;;;;;;10.02;3.03;;;13.10;99.90;;;;;;4997743;28;20045;-65
2023/04/12 12:57:46;;;;;;;7.45;3.28;;;13.00;99.90;;;;;;4997609;28;20053;-65
2023/04/12 13:00:14;;;;;;;13.68;2.20;;;12.90;99.90;;;;;;4998625;28;20056;-65
2023/04/12 13:02:44;;;;;;;9.90;2.45;;;12.90;99.90;;;;;;4998347;28;20046;-65